.
WxDataArchive / Data Records for 2009-04-29
2009-04-28 April 2009 2009-04-30

Data Records for Wednesday, 29 April 2009

Time	Temp	Chill	HIndex	Humid	Dewpt	 Wind 	HiWind	WindDir	Rain 	Barom 
-----	----	-----	------	-----	-----	------	------	-------	-----	----- 
00:00	47.4	47.4	47.4	88	44.0	3	7	112	0.00	30.428 
00:05	47.4	47.4	47.4	88	44.0	2	5	90	0.00	30.428 
00:10	47.4	47.4	47.4	88	44.0	2	6	90	0.00	30.428 
00:15	47.4	47.4	47.4	87	43.7	2	4	112	0.00	30.438 
00:20	47.4	47.4	47.4	87	43.7	3	10	112	0.00	30.438 
00:25	47.4	47.4	47.4	87	43.7	3	6	90	0.00	30.438 
00:30	47.3	45.8	47.3	86	43.3	4	9	90	0.00	30.428 
00:35	47.1	45.5	47.1	85	42.8	4	6	112	0.00	30.428 
00:40	47.1	45.5	47.1	84	42.5	4	7	112	0.00	30.428 
00:45	47.1	45.5	47.1	84	42.5	4	9	112	0.00	30.430 
00:50	47.1	47.1	47.1	84	42.5	3	10	112	0.00	30.430 
00:55	47.1	47.1	47.1	84	42.5	3	7	112	0.00	30.430 
01:00	47.0	47.0	47.0	84	42.4	3	6	90	0.00	30.427 
01:05	47.0	47.0	47.0	83	42.1	3	10	90	0.00	30.427 
01:10	47.0	45.4	47.0	83	42.1	4	9	90	0.00	30.427 
01:15	46.8	45.2	46.8	83	41.9	4	10	90	0.00	30.427 
01:20	46.8	46.8	46.8	83	41.9	3	7	90	0.00	30.427 
01:25	46.7	45.1	46.7	83	41.8	4	9	112	0.00	30.427 
01:30	46.5	44.1	46.5	82	41.3	5	9	90	0.00	30.418 
01:35	46.5	44.8	46.5	82	41.3	4	10	90	0.00	30.418 
01:40	46.4	44.7	46.4	82	41.2	4	10	112	0.00	30.418 
01:45	46.4	44.7	46.4	82	41.2	4	10	112	0.00	30.421 
01:50	46.2	43.8	46.2	82	41.0	5	13	112	0.00	30.421 
01:55	46.2	44.5	46.2	82	41.0	4	10	90	0.00	30.421 
02:00	46.2	43.8	46.2	83	41.3	5	12	90	0.00	30.418 
02:05	46.1	46.1	46.1	84	41.5	3	6	90	0.00	30.418 
02:10	46.1	46.1	46.1	84	41.5	3	6	90	0.00	30.418 
02:15	46.1	46.1	46.1	84	41.5	3	7	112	0.00	30.415 
02:20	46.1	44.4	46.1	84	41.5	4	15	112	0.00	30.415 
02:25	46.1	44.4	46.1	84	41.5	4	10	90	0.00	30.415 
02:30	46.1	44.4	46.1	84	41.5	4	9	90	0.00	30.406 
02:35	46.1	44.4	46.1	84	41.5	4	10	90	0.00	30.406 
02:40	46.1	44.4	46.1	85	41.8	4	9	90	0.00	30.406 
02:45	46.1	44.4	46.1	85	41.8	4	10	90	0.00	30.412 
02:50	46.1	46.1	46.1	86	42.1	2	7	112	0.00	30.412 
02:55	46.1	46.1	46.1	86	42.1	3	8	112	0.00	30.412 
03:00	46.1	46.1	46.1	86	42.1	3	10	90	0.00	30.409 
03:05	46.1	46.1	46.1	86	42.1	2	6	112	0.00	30.409 
03:10	46.1	46.1	46.1	87	42.4	3	7	112	0.00	30.409 
03:15	46.1	43.6	46.1	87	42.4	5	10	90	0.00	30.398 
03:20	46.2	44.5	46.2	87	42.5	4	9	90	0.00	30.398 
03:25	46.2	43.8	46.2	87	42.5	5	11	90	0.00	30.398 
03:30	46.2	44.5	46.2	87	42.5	4	11	90	0.00	30.402 
03:35	46.2	46.2	46.2	87	42.5	3	6	90	0.00	30.402 
03:40	46.4	46.4	46.4	87	42.7	3	5	90	0.00	30.402 
03:45	46.4	46.4	46.4	87	42.7	3	6	112	0.00	30.404 
03:50	46.4	44.7	46.4	87	42.7	4	10	90	0.00	30.404 
03:55	46.4	44.7	46.4	88	43.0	4	7	90	0.00	30.404 
04:00	46.4	44.7	46.4	88	43.0	4	7	90	0.00	30.399 
04:05	46.5	46.5	46.5	88	43.1	3	9	112	0.00	30.399 
04:10	46.5	44.8	46.5	88	43.1	4	10	90	0.00	30.399 
04:15	46.5	44.8	46.5	88	43.1	4	7	112	0.00	30.396 
04:20	46.5	46.5	46.5	89	43.4	3	9	90	0.00	30.396 
04:25	46.7	46.7	46.7	89	43.6	3	6	90	0.00	30.396 
04:30	46.7	46.7	46.7	89	43.6	3	7	112	0.00	30.398 
04:35	46.7	46.7	46.7	89	43.6	3	7	112	0.00	30.398 
04:40	46.7	46.7	46.7	89	43.6	3	9	112	0.00	30.398 
04:45	46.8	45.2	46.8	89	43.7	4	11	112	0.00	30.395 
04:50	46.8	45.2	46.8	89	43.7	4	11	112	0.00	30.395 
04:55	46.8	46.8	46.8	89	43.7	3	11	112	0.00	30.395 
05:00	46.8	45.2	46.8	89	43.7	4	8	90	0.00	30.387 
05:05	46.8	46.8	46.8	89	43.7	3	9	112	0.00	30.387 
05:10	47.0	47.0	47.0	89	43.9	3	6	90	0.00	30.387 
05:15	47.0	47.0	47.0	89	43.9	2	6	112	0.00	30.389 
05:20	47.0	47.0	47.0	89	43.9	3	9	112	0.00	30.389 
05:25	47.0	45.4	47.0	89	43.9	4	12	90	0.00	30.389 
05:30	47.1	45.5	47.1	89	44.0	4	9	112	0.00	30.385 
05:35	47.1	45.5	47.1	88	43.7	4	9	90	0.00	30.385 
05:40	47.3	45.8	47.3	88	43.9	4	11	112	0.00	30.385 
05:45	47.3	47.3	47.3	88	43.9	3	7	112	0.00	30.389 
05:50	47.3	47.3	47.3	88	43.9	3	6	112	0.00	30.389 
05:55	47.3	47.3	47.3	88	43.9	3	8	90	0.00	30.389 
06:00	47.4	45.9	47.4	88	44.0	4	10	90	0.00	30.391 
06:05	47.4	47.4	47.4	88	44.0	3	6	90	0.00	30.391 
06:10	47.4	47.4	47.4	88	44.0	3	9	112	0.00	30.391 
06:15	47.4	47.4	47.4	88	44.0	3	7	90	0.00	30.395 
06:20	47.6	47.6	47.6	88	44.2	3	9	90	0.00	30.395 
06:25	47.6	47.6	47.6	88	44.2	3	7	90	0.00	30.395 
06:30	47.6	47.6	47.6	88	44.2	3	7	112	0.00	30.388 
06:35	47.6	46.1	47.6	88	44.2	4	9	112	0.00	30.388 
06:40	47.4	47.4	47.4	89	44.3	3	7	90	0.00	30.388 
06:45	47.4	45.9	47.4	89	44.3	4	9	112	0.00	30.385 
06:50	47.3	45.8	47.3	90	44.5	4	10	112	0.00	30.385 
06:55	47.0	45.4	47.0	90	44.2	4	9	112	0.00	30.385 
07:00	46.8	46.8	46.8	91	44.3	3	10	112	0.00	30.385 
07:05	46.8	46.8	46.8	91	44.3	3	6	112	0.00	30.385 
07:10	46.8	46.8	46.8	91	44.3	3	7	112	0.00	30.385 
07:15	46.7	45.1	46.7	91	44.2	4	9	112	0.00	30.388 
07:20	46.7	46.7	46.7	91	44.2	3	7	112	0.00	30.388 
07:25	46.8	46.8	46.8	91	44.3	2	5	90	0.00	30.388 
07:30	46.7	45.1	46.7	91	44.2	4	11	90	0.00	30.397 
07:35	46.7	43.7	46.7	90	43.9	6	12	90	0.00	30.397 
07:40	46.7	44.3	46.7	90	43.9	5	13	90	0.00	30.397 
07:45	46.7	46.7	46.7	90	43.9	3	7	90	0.00	30.398 
07:50	46.7	46.7	46.7	90	43.9	3	7	112	0.00	30.398 
07:55	46.7	46.7	46.7	91	44.2	3	5	112	0.00	30.398 
08:00	46.7	45.1	46.7	91	44.2	4	10	112	0.00	30.397 
08:05	46.7	45.1	46.7	91	44.2	4	12	112	0.01	30.397 
08:10	46.7	46.7	46.7	91	44.2	3	7	112	0.00	30.397 
08:15	46.7	46.7	46.7	91	44.2	3	6	90	0.00	30.403 
08:20	46.7	46.7	46.7	91	44.2	3	7	90	0.00	30.403 
08:25	46.5	46.5	46.5	91	44.0	3	8	112	0.00	30.403 
08:30	46.7	46.7	46.7	92	44.5	3	10	90	0.00	30.393 
08:35	46.7	46.7	46.7	92	44.5	3	6	90	0.01	30.393 
08:40	46.5	46.5	46.5	92	44.3	3	11	112	0.00	30.393 
08:45	46.7	46.7	46.7	92	44.5	3	10	90	0.00	30.402 
08:50	46.8	46.8	46.8	92	44.6	2	4	90	0.00	30.402 
08:55	46.7	45.1	46.7	92	44.5	4	9	112	0.00	30.402 
09:00	46.8	46.8	46.8	96	45.7	3	6	112	0.00	30.397 
09:05	47.0	45.4	47.0	92	44.8	4	9	90	0.00	30.397 
09:10	47.0	44.1	47.0	92	44.8	6	11	112	0.00	30.397 
09:15	47.1	45.5	47.1	92	44.9	4	10	90	0.00	30.394 
09:20	47.3	45.0	47.3	92	45.1	5	10	112	0.00	30.394 
09:25	47.3	45.8	47.3	92	45.1	4	9	112	0.00	30.394 
09:30	47.4	45.9	47.4	92	45.2	4	12	112	0.00	30.400 
09:35	47.4	47.4	47.4	92	45.2	3	7	112	0.00	30.400 
09:40	47.4	45.9	47.4	91	44.9	4	10	90	0.00	30.400 
09:45	47.4	47.4	47.4	92	45.2	3	10	135	0.00	30.403 
09:50	47.6	47.6	47.6	92	45.4	2	6	112	0.00	30.403 
09:55	47.7	47.7	47.7	92	45.5	2	9	112	0.00	30.403 
10:00	47.7	45.5	47.7	91	45.2	5	11	90	0.00	30.392 
10:05	47.9	45.8	47.9	91	45.4	5	11	90	0.00	30.392 
10:10	47.9	45.8	47.9	90	45.1	5	11	90	0.00	30.392 
10:15	48.2	46.8	48.2	90	45.4	4	9	90	0.00	30.387 
10:20	48.2	46.8	48.2	90	45.4	4	9	112	0.00	30.387 
10:25	48.3	48.3	48.3	90	45.5	3	7	112	0.00	30.387 
10:30	48.3	46.9	48.3	90	45.5	4	11	112	0.00	30.388 
10:35	48.3	46.2	48.3	89	45.2	5	12	112	0.00	30.388 
10:40	48.5	47.1	48.5	89	45.4	4	7	112	0.00	30.388 
10:45	48.6	47.3	48.6	89	45.5	4	9	90	0.00	30.386 
10:50	48.8	47.5	48.8	89	45.7	4	10	112	0.00	30.386 
10:55	48.9	46.9	48.9	89	45.8	5	9	90	0.00	30.386 
11:00	49.2	49.2	49.2	89	46.1	3	7	112	0.00	30.387 
11:05	49.2	47.9	49.2	89	46.1	4	10	90	0.00	30.387 
11:10	49.4	49.4	49.4	88	46.0	3	9	112	0.00	30.387 
11:15	49.4	48.2	49.4	88	46.0	4	9	112	0.00	30.387 
11:20	49.5	49.5	49.5	88	46.1	3	11	112	0.00	30.387 
11:25	49.4	47.5	49.4	88	46.0	5	10	112	0.00	30.387 
11:30	49.4	48.2	49.4	88	46.0	4	12	112	0.00	30.386 
11:35	49.5	48.3	49.5	88	46.1	4	7	90	0.00	30.386 
11:40	49.8	48.6	49.8	88	46.4	4	9	90	0.00	30.386 
11:45	49.9	48.8	49.9	88	46.5	4	9	90	0.00	30.384 
11:50	50.1	50.1	50.1	88	46.7	4	11	112	0.00	30.384 
11:55	50.1	50.1	50.1	87	46.4	4	10	90	0.00	30.384 
12:00	50.1	50.1	50.1	88	46.7	4	10	112	0.00	30.386 
12:05	50.2	50.2	50.2	88	46.8	3	6	90	0.00	30.386 
12:10	50.2	50.2	50.2	87	46.5	4	9	112	0.00	30.386 
12:15	50.4	50.4	50.4	86	46.4	4	12	90	0.00	30.382 
12:20	50.4	50.4	50.4	87	46.7	4	7	112	0.00	30.382 
12:25	50.4	50.4	50.4	84	45.7	4	9	90	0.00	30.382 
12:30	50.5	50.5	50.5	87	46.8	3	7	90	0.00	30.377 
12:35	50.5	50.5	50.5	87	46.8	4	9	112	0.00	30.377 
12:40	50.7	50.7	50.7	87	47.0	4	7	90	0.00	30.377 
12:45	50.8	50.8	50.8	87	47.1	3	8	112	0.00	30.377 
12:50	50.8	50.8	50.8	87	47.1	3	7	90	0.00	30.377 
12:55	51.0	51.0	51.0	87	47.3	4	9	90	0.00	30.377 
13:00	51.1	51.1	51.1	87	47.4	3	8	90	0.00	30.376 
13:05	51.1	51.1	51.1	88	47.7	4	11	90	0.00	30.376 
13:10	51.3	51.3	51.3	88	47.9	3	7	90	0.00	30.376 
13:15	51.3	51.3	51.3	87	47.6	3	9	112	0.00	30.371 
13:20	51.4	51.4	51.4	87	47.7	3	9	112	0.00	30.371 
13:25	51.6	51.6	51.6	86	47.5	3	5	112	0.00	30.371 
13:30	51.6	51.6	51.6	86	47.5	3	9	90	0.00	30.369 
13:35	51.6	51.6	51.6	86	47.5	5	9	90	0.00	30.369 
13:40	51.7	51.7	51.7	86	47.6	2	7	112	0.00	30.369 
13:45	51.9	51.9	51.9	86	47.8	2	5	112	0.00	30.358 
13:50	51.9	51.9	51.9	86	47.8	3	7	90	0.00	30.358 
13:55	51.9	51.9	51.9	86	47.8	3	7	112	0.00	30.358 
14:00	51.9	51.9	51.9	86	47.8	3	7	112	0.00	30.354 
14:05	52.0	52.0	52.0	86	47.9	2	6	90	0.00	30.354 
14:10	51.9	51.9	51.9	86	47.8	2	6	112	0.00	30.354 
14:15	51.9	51.9	51.9	87	48.2	3	6	112	0.00	30.351 
14:20	51.9	51.9	51.9	87	48.2	2	6	90	0.00	30.351 
14:25	51.9	51.9	51.9	86	47.8	4	9	112	0.00	30.351 
14:30	52.0	52.0	52.0	87	48.3	3	9	112	0.00	30.343 
14:35	52.0	52.0	52.0	87	48.3	4	8	90	0.00	30.343 
14:40	52.0	52.0	52.0	87	48.3	4	9	90	0.00	30.343 
14:45	52.2	52.2	52.2	88	48.8	4	8	112	0.00	30.337 
14:50	52.5	52.5	52.5	89	49.4	4	10	90	0.00	30.337 
14:55	52.9	52.9	52.9	90	50.0	3	9	112	0.00	30.337 
15:00	53.2	53.2	53.2	91	50.6	4	9	90	0.01	30.323 
15:05	53.1	53.1	53.1	90	50.2	4	7	90	0.00	30.323 
15:10	53.1	53.1	53.1	91	50.5	4	11	90	0.00	30.323 
15:15	53.1	53.1	53.1	91	50.5	5	11	90	0.00	30.323 
15:20	52.9	52.9	52.9	91	50.3	5	10	112	0.00	30.323 
15:25	53.1	53.1	53.1	91	50.5	4	10	112	0.00	30.323 
15:30	53.2	53.2	53.2	90	50.3	5	11	90	0.00	30.320 
15:35	53.2	53.2	53.2	89	50.0	5	9	112	0.00	30.320 
15:40	53.3	53.3	53.3	89	50.1	5	11	112	0.00	30.320 
15:45	53.6	53.6	53.6	89	50.4	3	9	112	0.00	30.313 
15:50	53.5	53.5	53.5	88	50.0	3	7	112	0.00	30.313 
15:55	53.5	53.5	53.5	88	50.0	5	10	90	0.00	30.313 
16:00	53.6	53.6	53.6	88	50.1	3	7	112	0.00	30.304 
16:05	53.8	53.8	53.8	88	50.3	4	10	112	0.00	30.304 
16:10	54.2	54.2	54.2	88	50.7	3	6	112	0.00	30.304 
16:15	54.4	54.4	54.4	87	50.6	4	9	112	0.00	30.299 
16:20	54.4	54.4	54.4	87	50.6	4	7	90	0.00	30.299 
16:25	54.7	54.7	54.7	86	50.6	3	6	112	0.00	30.299 
16:30	54.7	54.7	54.7	85	50.3	3	9	90	0.00	30.289 
16:35	54.8	54.8	54.8	85	50.4	3	8	112	0.00	30.289 
16:40	55.0	55.0	55.0	85	50.6	3	5	112	0.00	30.289 
16:45	55.0	55.0	55.0	85	50.6	3	12	90	0.00	30.282 
16:50	55.0	55.0	55.0	84	50.3	5	11	112	0.00	30.282 
16:55	54.8	54.8	54.8	85	50.4	4	10	112	0.00	30.282 
17:00	55.0	55.0	55.0	85	50.6	3	7	112	0.00	30.279 
17:05	55.0	55.0	55.0	85	50.6	3	10	90	0.00	30.279 
17:10	54.8	54.8	54.8	85	50.4	4	10	112	0.00	30.279 
17:15	54.8	54.8	54.8	85	50.4	4	7	90	0.00	30.273 
17:20	54.8	54.8	54.8	85	50.4	3	7	112	0.00	30.273 
17:25	54.8	54.8	54.8	85	50.4	3	7	112	0.00	30.273 
17:30	55.0	55.0	55.0	85	50.6	3	7	112	0.00	30.279 
17:35	55.0	55.0	55.0	85	50.6	4	11	90	0.00	30.279 
17:40	55.1	55.1	55.1	85	50.7	3	7	90	0.00	30.279 
17:45	55.3	55.3	55.3	85	50.9	3	10	112	0.00	30.278 
17:50	55.3	55.3	55.3	85	50.9	2	5	112	0.00	30.278 
17:55	55.4	55.4	55.4	85	51.0	2	5	112	0.00	30.278 
18:00	55.3	55.3	55.3	84	50.5	3	9	112	0.00	30.286 
18:05	55.3	55.3	55.3	84	50.5	3	7	112	0.00	30.286 
18:10	55.3	55.3	55.3	84	50.5	3	6	90	0.00	30.286 
18:15	55.3	55.3	55.3	84	50.5	3	6	90	0.00	30.287 
18:20	55.1	55.1	55.1	84	50.4	2	7	112	0.00	30.287 
18:25	55.1	55.1	55.1	84	50.4	2	6	112	0.00	30.287 
18:30	55.3	55.3	55.3	84	50.5	2	5	90	0.00	30.284 
18:35	55.3	55.3	55.3	84	50.5	2	5	112	0.00	30.284 
18:40	55.3	55.3	55.3	85	50.9	2	4	135	0.00	30.284 
18:45	55.4	55.4	55.4	84	50.6	2	5	112	0.00	30.283 
18:50	55.4	55.4	55.4	84	50.6	3	5	90	0.00	30.283 
18:55	55.4	55.4	55.4	84	50.6	3	5	112	0.00	30.283 
19:00	55.4	55.4	55.4	85	51.0	2	7	90	0.00	30.280 
19:05	55.4	55.4	55.4	85	51.0	2	5	90	0.00	30.280 
19:10	55.3	55.3	55.3	84	50.5	3	5	90	0.00	30.280 
19:15	55.3	55.3	55.3	84	50.5	2	6	90	0.00	30.276 
19:20	55.3	55.3	55.3	85	50.9	2	5	90	0.00	30.276 
19:25	55.3	55.3	55.3	84	50.5	2	6	112	0.00	30.276 
19:30	55.1	55.1	55.1	85	50.7	2	5	112	0.00	30.268 
19:35	55.1	55.1	55.1	84	50.4	3	6	112	0.00	30.268 
19:40	55.0	55.0	55.0	84	50.3	3	7	112	0.00	30.268 
19:45	55.0	55.0	55.0	84	50.3	3	6	112	0.00	30.263 
19:50	55.0	55.0	55.0	85	50.6	2	5	112	0.00	30.263 
19:55	54.8	54.8	54.8	85	50.4	3	6	90	0.00	30.263 
20:00	54.8	54.8	54.8	85	50.4	2	6	90	0.00	30.256 
20:05	54.8	54.8	54.8	85	50.4	3	9	90	0.00	30.256 
20:10	54.7	54.7	54.7	85	50.3	2	6	112	0.00	30.256 
20:15	54.7	54.7	54.7	85	50.3	3	9	112	0.00	30.252 
20:20	54.5	54.5	54.5	84	49.8	3	6	112	0.00	30.252 
20:25	54.5	54.5	54.5	85	50.1	3	7	112	0.00	30.252 
20:30	54.5	54.5	54.5	85	50.1	2	9	112	0.00	30.254 
20:35	54.4	54.4	54.4	85	50.0	2	6	112	0.00	30.254 
20:40	54.4	54.4	54.4	85	50.0	3	6	90	0.00	30.254 
20:45	54.4	54.4	54.4	85	50.0	2	5	90	0.00	30.253 
20:50	54.4	54.4	54.4	85	50.0	2	5	90	0.00	30.253 
20:55	54.4	54.4	54.4	85	50.0	2	4	112	0.00	30.253 
21:00	54.2	54.2	54.2	84	49.5	2	6	90	0.00	30.251 
21:05	54.2	54.2	54.2	84	49.5	2	4	90	0.00	30.251 
21:10	54.2	54.2	54.2	84	49.5	2	5	90	0.00	30.251 
21:15	54.1	54.1	54.1	83	49.1	2	7	112	0.00	30.244 
21:20	54.1	54.1	54.1	83	49.1	3	9	90	0.00	30.244 
21:25	53.9	53.9	53.9	82	48.5	3	6	112	0.00	30.244 
21:30	53.9	53.9	53.9	82	48.5	3	7	90	0.00	30.245 
21:35	53.9	53.9	53.9	83	48.9	2	5	90	0.00	30.245 
21:40	53.9	53.9	53.9	83	48.9	1	4	90	0.00	30.245 
21:45	53.8	53.8	53.8	83	48.8	1	6	90	0.00	30.251 
21:50	53.8	53.8	53.8	83	48.8	1	5	112	0.00	30.251 
21:55	53.8	53.8	53.8	83	48.8	2	6	90	0.00	30.251 
22:00	53.6	53.6	53.6	83	48.6	2	5	90	0.00	30.246 
22:05	53.6	53.6	53.6	83	48.6	2	5	90	0.00	30.246 
22:10	53.6	53.6	53.6	84	48.9	1	4	90	0.00	30.246 
22:15	53.5	53.5	53.5	84	48.8	1	6	112	0.00	30.239 
22:20	53.5	53.5	53.5	84	48.8	2	4	112	0.00	30.239 
22:25	53.3	53.3	53.3	84	48.6	2	5	112	0.00	30.239 
22:30	53.3	53.3	53.3	84	48.6	1	3	112	0.00	30.238 
22:35	53.2	53.2	53.2	84	48.5	1	3	112	0.00	30.238 
22:40	53.2	53.2	53.2	84	48.5	2	5	90	0.00	30.238 
22:45	53.2	53.2	53.2	85	48.8	1	4	90	0.00	30.239 
22:50	53.2	53.2	53.2	85	48.8	1	2	90	0.00	30.239 
22:55	53.2	53.2	53.2	85	48.8	2	7	90	0.00	30.239 
23:00	53.2	53.2	53.2	85	48.8	2	5	90	0.00	30.237 
23:05	53.2	53.2	53.2	85	48.8	2	5	90	0.00	30.237 
23:10	53.1	53.1	53.1	85	48.7	2	5	90	0.00	30.237 
23:15	53.1	53.1	53.1	85	48.7	2	4	112	0.00	30.236 
23:20	53.1	53.1	53.1	86	49.0	2	5	112	0.00	30.236 
23:25	53.1	53.1	53.1	86	49.0	2	4	112	0.00	30.236 
23:30	53.1	53.1	53.1	86	49.0	2	7	112	0.00	30.224 
23:35	52.9	52.9	52.9	86	48.8	2	5	90	0.00	30.224 
23:40	52.9	52.9	52.9	86	48.8	2	4	90	0.00	30.224 
23:45	52.9	52.9	52.9	86	48.8	2	5	68	0.00	30.221 
23:50	52.9	52.9	52.9	86	48.8	2	5	68	0.00	30.221 
23:55	52.9	52.9	52.9	86	48.8	2	4	90	0.00	30.221 

CoCoRaHS
IN-AL-39
A2 Web Hosting
Creative Commons License
GoDaddy
search engine by freefind advanced

loaded 2018-11-13 02:07:05 • last modified 2010-11-18 10:43:29
Privacy PolicyDisclaimer
• wx.awcolley.com is powered by PmWiki v.2002016 •
• all content (unless otherwise noted) © 2018 A W Colley